Clearville, PA (15535)

10:39 PM EDT on August 01, 2014 (GMT -0400)
E South Street, along Juniata River (KPAEVERE3) Elev 1015 ft | 40.01 °N, 78.37 °W | Change Station

Current weather conditions updated 4 minutes ago

Mostly Cloudy
Mostly Cloudy
68.9 °F
Feels Like 68.9 °F
N
0.0
Wind Variable Wind from South

Tomorrow is forecast to be Cooler than today. Scattered thunderstorms possible.

Today
High -- | Low -- °F
--% Chance of Precip.
Yesterday
High -- | Low -- °F
Precip. -- in
6:12 AM 8:27 PM
Waxing Crescent, 31% visible
Pressure 30.20 in
Visibility 10.0 miles
Clouds Mostly Cloudy 6500 ft
Dew Point 64 °F
Humidity 83%
Rainfall 0.00 in
Snow Depth Not available.
UV 0 out of 12
Pollen 6.30 out of 12
Air Quality Not available.
Flu Activity Not available.
METAR KCBE 020222Z AUTO 00000KT 10SM BKN065 22/17 A3020 RMK AO1

More Conditions Fewer Conditions

Pressure 30.20 in
Visibility 10.0 miles
Clouds Mostly Cloudy 6500 ft
Dew Point 64 °F
Humidity 83%
Rainfall 0.00 in
Snow Depth Not available.
UV 0 out of 12
Pollen 6.30 out of 12
Air Quality Not available.
Flu Activity Not available.
METAR KCBE 020222Z AUTO 00000KT 10SM BKN065 22/17 A3020 RMK AO1

More Conditions Fewer Conditions

10-Day Weather Forecast

Almanac

Astronomy

Aug. 01, 2014 Rise Set
Actual Time 6:12 AM EDT 8:27 PM EDT
Civil Twilight 5:42 AM EDT 8:57 PM EDT
Nautical Twilight 5:05 AM EDT 9:34 PM EDT
Astronomical Twilight 4:24 AM EDT 10:14 PM EDT
Moon 11:34 AM EDT (8/1) 11:11 PM EDT (8/1)
Length of Visible Light 15h 14m
Length of Day
14h 14m
Tomorrow will be 1m 59s shorter.
Waxing Crescent, 31% of the Moon is Illuminated
Today
Waxing Crescent
Aug 3
First Quarter
Aug 10
Full
Aug 17
Last Quarter
Aug 25
New

Today's Extremes

State Highs State Lows

Community

WunderPhotos

Upload Photos

1,739,807 photos uploaded!

Nearby

Snow Depth

Station Depth Elevation
No new snow has been reported.

Earthquake Activity

City Distance Mag. Time & Date
No recent earthquake activity has been reported nearby.
Minimum magnitude displayed is 2.5.

Coastal Water Temperatures

Place Temperature
No Stations Reporting

Nearby Weather Stations

Station Location Temp. Dew Point Humidity Wind Precip. Elev Updated Type
E South Street, along Juniata River, Everett, PA 68.9 °F 64 °F 83% South  at  0.0 mph - / hr 1015 ft 10:34 PM EDT Normal
Everett Area Middle/High School, Everett, PA 68.8 °F 62 °F 79% SSW  at  0.0 mph 0.00 in / hr 1142 ft 10:39 PM EDT Normal
Coolfont Mountainside, Berkeley Springs, WV 66.8 °F 62 °F 84% SSW  at  0.0 mph 0.00 in / hr 1053 ft 10:31 PM EDT Normal
River Ridge, Great Cacapon, WV 67.3 °F 62 °F 83% SW  at  0.0 mph 0.00 in / hr 1050 ft 10:39 PM EDT Rapid Fire
Cacapon East, Berkeley Springs, WV 67.3 °F 9 °F - North  at  0.0 mph 0.00 in / hr 917 ft 10:39 PM EDT Rapid Fire
Northern Bedford After 3, Loysburg, PA 69.0 °F 63 °F 82% ENE  at  4.0 mph 0.00 in / hr 1217 ft 10:37 PM EDT Normal

Show More Stations Show Fewer Stations